sensor_id;sensor_type;location;lat;lon;timestamp;pressure;altitude;pressure_sealevel;temperature;humidity
30724;BME280;17473;52.286;20.930;2023-02-19T00:01:51;99721.41;;;5.17;78.79
30724;BME280;17473;52.286;20.930;2023-02-19T00:04:20;99707.50;;;5.19;78.60
30724;BME280;17473;52.286;20.930;2023-02-19T00:06:50;99711.25;;;5.25;78.18
30724;BME280;17473;52.286;20.930;2023-02-19T00:09:18;99699.69;;;5.20;77.99
30724;BME280;17473;52.286;20.930;2023-02-19T00:11:46;99704.88;;;5.19;77.95
30724;BME280;17473;52.286;20.930;2023-02-19T00:14:17;99715.56;;;5.23;77.58
30724;BME280;17473;52.286;20.930;2023-02-19T00:16:45;99707.75;;;5.25;77.25
30724;BME280;17473;52.286;20.930;2023-02-19T00:19:17;99704.16;;;5.23;77.04
30724;BME280;17473;52.286;20.930;2023-02-19T00:21:44;99705.69;;;5.17;77.20
30724;BME280;17473;52.286;20.930;2023-02-19T00:24:13;99703.00;;;5.16;76.75
30724;BME280;17473;52.286;20.930;2023-02-19T00:26:41;99697.69;;;5.14;76.69
30724;BME280;17473;52.286;20.930;2023-02-19T00:29:16;99697.75;;;5.16;76.64
30724;BME280;17473;52.286;20.930;2023-02-19T00:31:44;99701.22;;;5.15;76.48
30724;BME280;17473;52.286;20.930;2023-02-19T00:34:12;99700.56;;;5.21;76.24
30724;BME280;17473;52.286;20.930;2023-02-19T00:36:41;99678.56;;;5.15;76.00
30724;BME280;17473;52.286;20.930;2023-02-19T00:39:14;99692.81;;;5.22;76.21
30724;BME280;17473;52.286;20.930;2023-02-19T00:41:42;99691.84;;;5.20;75.63
30724;BME280;17473;52.286;20.930;2023-02-19T00:44:11;99690.09;;;5.21;75.89
30724;BME280;17473;52.286;20.930;2023-02-19T00:46:41;99690.81;;;5.16;75.82
30724;BME280;17473;52.286;20.930;2023-02-19T00:49:18;99694.41;;;5.19;75.57
30724;BME280;17473;52.286;20.930;2023-02-19T00:51:46;99694.47;;;5.20;75.42
30724;BME280;17473;52.286;20.930;2023-02-19T00:54:14;99688.41;;;5.21;75.31
30724;BME280;17473;52.286;20.930;2023-02-19T00:56:42;99691.22;;;5.26;74.58
30724;BME280;17473;52.286;20.930;2023-02-19T00:59:09;99699.13;;;5.27;74.43
30724;BME280;17473;52.286;20.930;2023-02-19T01:01:36;99704.31;;;5.26;74.14
30724;BME280;17473;52.286;20.930;2023-02-19T01:04:04;99703.53;;;5.28;74.08
30724;BME280;17473;52.286;20.930;2023-02-19T01:06:32;99697.44;;;5.28;73.83
30724;BME280;17473;52.286;20.930;2023-02-19T01:09:00;99691.03;;;5.21;73.98
30724;BME280;17473;52.286;20.930;2023-02-19T01:11:28;99697.22;;;5.23;73.56
30724;BME280;17473;52.286;20.930;2023-02-19T01:13:59;99687.78;;;5.27;73.47
30724;BME280;17473;52.286;20.930;2023-02-19T01:16:27;99697.53;;;5.31;72.98
30724;BME280;17473;52.286;20.930;2023-02-19T01:18:56;99681.00;;;5.32;72.89
30724;BME280;17473;52.286;20.930;2023-02-19T01:21:25;99681.72;;;5.28;72.90
30724;BME280;17473;52.286;20.930;2023-02-19T01:23:54;99683.69;;;5.33;72.24
30724;BME280;17473;52.286;20.930;2023-02-19T01:26:26;99689.31;;;5.43;72.10
30724;BME280;17473;52.286;20.930;2023-02-19T01:28:53;99690.66;;;5.33;72.32
30724;BME280;17473;52.286;20.930;2023-02-19T01:31:22;99688.59;;;5.26;72.26
30724;BME280;17473;52.286;20.930;2023-02-19T01:33:56;99693.03;;;5.27;72.40
30724;BME280;17473;52.286;20.930;2023-02-19T01:36:25;99690.72;;;5.35;71.98
30724;BME280;17473;52.286;20.930;2023-02-19T01:38:52;99685.38;;;5.31;71.89
30724;BME280;17473;52.286;20.930;2023-02-19T01:41:23;99692.59;;;5.37;71.59
30724;BME280;17473;52.286;20.930;2023-02-19T01:46:44;99699.47;;;5.35;72.08
30724;BME280;17473;52.286;20.930;2023-02-19T01:49:24;99692.59;;;5.37;72.29
30724;BME280;17473;52.286;20.930;2023-02-19T01:55:02;99702.00;;;5.33;72.84
30724;BME280;17473;52.286;20.930;2023-02-19T01:57:37;99694.25;;;5.35;72.95
30724;BME280;17473;52.286;20.930;2023-02-19T02:00:09;99701.28;;;5.36;72.86
30724;BME280;17473;52.286;20.930;2023-02-19T02:02:39;99689.31;;;5.43;72.83
30724;BME280;17473;52.286;20.930;2023-02-19T02:05:18;99681.94;;;5.32;73.14
30724;BME280;17473;52.286;20.930;2023-02-19T02:07:47;99694.34;;;5.38;72.97
30724;BME280;17473;52.286;20.930;2023-02-19T02:10:33;99685.56;;;5.36;73.30
30724;BME280;17473;52.286;20.930;2023-02-19T02:13:00;99687.06;;;5.31;73.52
30724;BME280;17473;52.286;20.930;2023-02-19T02:27:38;99684.84;;;5.40;73.52
30724;BME280;17473;52.286;20.930;2023-02-19T02:30:46;99683.06;;;5.39;73.60
30724;BME280;17473;52.286;20.930;2023-02-19T02:33:45;99693.28;;;5.33;73.96
30724;BME280;17473;52.286;20.930;2023-02-19T02:36:28;99703.28;;;5.42;73.51
30724;BME280;17473;52.286;20.930;2023-02-19T02:38:57;99700.38;;;5.36;73.95
30724;BME280;17473;52.286;20.930;2023-02-19T02:41:26;99690.91;;;5.39;74.08
30724;BME280;17473;52.286;20.930;2023-02-19T02:43:53;99696.94;;;5.37;74.13
30724;BME280;17473;52.286;20.930;2023-02-19T02:46:33;99688.88;;;5.32;74.65
30724;BME280;17473;52.286;20.930;2023-02-19T02:49:21;99688.59;;;5.26;75.12
30724;BME280;17473;52.286;20.930;2023-02-19T02:51:51;99695.91;;;5.33;74.94
30724;BME280;17473;52.286;20.930;2023-02-19T02:54:25;99691.88;;;5.41;74.75
30724;BME280;17473;52.286;20.930;2023-02-19T02:57:14;99694.53;;;5.22;75.78
30724;BME280;17473;52.286;20.930;2023-02-19T02:59:43;99690.97;;;5.20;76.16
30724;BME280;17473;52.286;20.930;2023-02-19T03:02:15;99685.06;;;5.25;75.80
30724;BME280;17473;52.286;20.930;2023-02-19T03:05:12;99693.91;;;5.27;75.95
30724;BME280;17473;52.286;20.930;2023-02-19T03:08:15;99683.53;;;5.29;75.75
30724;BME280;17473;52.286;20.930;2023-02-19T03:11:14;99683.38;;;5.26;75.90
30724;BME280;17473;52.286;20.930;2023-02-19T03:14:20;99683.38;;;5.26;76.03
30724;BME280;17473;52.286;20.930;2023-02-19T03:17:17;99687.63;;;5.24;75.98
30724;BME280;17473;52.286;20.930;2023-02-19T03:20:09;99677.03;;;5.21;75.96
30724;BME280;17473;52.286;20.930;2023-02-19T03:22:39;99676.13;;;5.20;76.02
30724;BME280;17473;52.286;20.930;2023-02-19T03:25:25;99683.22;;;5.23;75.93
30724;BME280;17473;52.286;20.930;2023-02-19T03:28:15;99693.03;;;5.27;75.74
30724;BME280;17473;52.286;20.930;2023-02-19T03:30:50;99692.31;;;5.31;75.53
30724;BME280;17473;52.286;20.930;2023-02-19T03:33:23;99697.75;;;5.16;75.95
30724;BME280;17473;52.286;20.930;2023-02-19T03:35:56;99691.84;;;5.20;76.03
30724;BME280;17473;52.286;20.930;2023-02-19T03:39:04;99685.63;;;5.18;76.30
30724;BME280;17473;52.286;20.930;2023-02-19T03:47:49;99675.69;;;5.09;76.36
30724;BME280;17473;52.286;20.930;2023-02-19T03:56:46;99665.47;;;4.96;76.52
30724;BME280;17473;52.286;20.930;2023-02-19T03:59:42;99667.47;;;5.01;76.35
30724;BME280;17473;52.286;20.930;2023-02-19T04:05:18;99658.94;;;4.86;76.48
30724;BME280;17473;52.286;20.930;2023-02-19T04:07:49;99655.81;;;4.75;76.63
30724;BME280;17473;52.286;20.930;2023-02-19T04:10:18;99669.59;;;4.71;76.99
30724;BME280;17473;52.286;20.930;2023-02-19T04:13:00;99673.41;;;4.78;76.63
30724;BME280;17473;52.286;20.930;2023-02-19T04:15:31;99664.56;;;4.76;76.49
30724;BME280;17473;52.286;20.930;2023-02-19T04:18:05;99654.66;;;4.68;76.65
30724;BME280;17473;52.286;20.930;2023-02-19T04:20:39;99652.16;;;4.72;76.59
30724;BME280;17473;52.286;20.930;2023-02-19T04:23:08;99658.78;;;4.63;76.76
30724;BME280;17473;52.286;20.930;2023-02-19T04:25:37;99651.53;;;4.58;77.08
30724;BME280;17473;52.286;20.930;2023-02-19T04:28:07;99646.50;;;4.62;76.85
30724;BME280;17473;52.286;20.930;2023-02-19T04:30:34;99647.97;;;4.56;76.91
30724;BME280;17473;52.286;20.930;2023-02-19T04:33:02;99646.25;;;4.56;76.91
30724;BME280;17473;52.286;20.930;2023-02-19T04:35:29;99643.97;;;4.44;77.14
30724;BME280;17473;52.286;20.930;2023-02-19T04:37:56;99649.47;;;4.50;77.35
30724;BME280;17473;52.286;20.930;2023-02-19T04:40:23;99650.00;;;4.43;77.33
30724;BME280;17473;52.286;20.930;2023-02-19T04:42:50;99643.19;;;4.47;77.27
30724;BME280;17473;52.286;20.930;2023-02-19T04:45:17;99634.91;;;4.56;76.72
30724;BME280;17473;52.286;20.930;2023-02-19T04:47:44;99625.72;;;4.46;76.98
30724;BME280;17473;52.286;20.930;2023-02-19T04:50:11;99641.34;;;4.44;77.01
30724;BME280;17473;52.286;20.930;2023-02-19T04:52:39;99655.41;;;4.46;77.07
30724;BME280;17473;52.286;20.930;2023-02-19T04:55:07;99649.03;;;4.41;77.26
30724;BME280;17473;52.286;20.930;2023-02-19T04:57:34;99652.91;;;4.49;76.95
30724;BME280;17473;52.286;20.930;2023-02-19T05:00:02;99641.63;;;4.50;76.68
30724;BME280;17473;52.286;20.930;2023-02-19T05:02:30;99638.19;;;4.51;76.92
30724;BME280;17473;52.286;20.930;2023-02-19T05:04:57;99638.03;;;4.48;76.77
30724;BME280;17473;52.286;20.930;2023-02-19T05:07:24;99634.47;;;4.46;76.81
30724;BME280;17473;52.286;20.930;2023-02-19T05:09:51;99640.59;;;4.47;76.48
30724;BME280;17473;52.286;20.930;2023-02-19T05:12:18;99636.94;;;4.43;76.85
30724;BME280;17473;52.286;20.930;2023-02-19T05:14:45;99639.50;;;4.42;76.91
30724;BME280;17473;52.286;20.930;2023-02-19T05:17:13;99635.63;;;4.33;77.21
30724;BME280;17473;52.286;20.930;2023-02-19T05:19:40;99640.53;;;4.27;77.53
30724;BME280;17473;52.286;20.930;2023-02-19T05:22:07;99629.88;;;4.22;77.91
30724;BME280;17473;52.286;20.930;2023-02-19T05:24:34;99632.47;;;4.22;78.11
30724;BME280;17473;52.286;20.930;2023-02-19T05:27:01;99640.53;;;4.45;77.24
30724;BME280;17473;52.286;20.930;2023-02-19T05:29:30;99644.72;;;4.42;77.18
30724;BME280;17473;52.286;20.930;2023-02-19T05:31:57;99635.41;;;4.29;77.58
30724;BME280;17473;52.286;20.930;2023-02-19T05:34:25;99640.38;;;4.42;77.43
30724;BME280;17473;52.286;20.930;2023-02-19T05:36:52;99635.25;;;4.44;77.21
30724;BME280;17473;52.286;20.930;2023-02-19T05:39:19;99629.09;;;4.43;77.21
30724;BME280;17473;52.286;20.930;2023-02-19T05:41:46;99620.44;;;4.44;77.27
30724;BME280;17473;52.286;20.930;2023-02-19T05:44:13;99622.44;;;4.50;77.26
30724;BME280;17473;52.286;20.930;2023-02-19T05:46:40;99626.75;;;4.49;77.35
30724;BME280;17473;52.286;20.930;2023-02-19T05:49:07;99614.16;;;4.41;77.59
30724;BME280;17473;52.286;20.930;2023-02-19T05:51:34;99611.63;;;4.42;77.74
30724;BME280;17473;52.286;20.930;2023-02-19T05:54:01;99615.00;;;4.39;77.88
30724;BME280;17473;52.286;20.930;2023-02-19T05:56:34;99630.00;;;4.44;78.24
30724;BME280;17473;52.286;20.930;2023-02-19T05:59:10;99625.50;;;4.41;78.19
30724;BME280;17473;52.286;20.930;2023-02-19T06:01:39;99626.63;;;4.46;77.93
30724;BME280;17473;52.286;20.930;2023-02-19T06:04:11;99623.09;;;4.46;78.04
30724;BME280;17473;52.286;20.930;2023-02-19T06:06:39;99615.88;;;4.40;78.26
30724;BME280;17473;52.286;20.930;2023-02-19T06:09:07;99620.22;;;4.39;78.30
30724;BME280;17473;52.286;20.930;2023-02-19T06:11:35;99633.03;;;4.53;77.71
30724;BME280;17473;52.286;20.930;2023-02-19T06:14:03;99624.09;;;4.48;78.04
30724;BME280;17473;52.286;20.930;2023-02-19T06:16:31;99626.31;;;4.40;78.41
30724;BME280;17473;52.286;20.930;2023-02-19T06:19:02;99625.88;;;4.49;78.13
30724;BME280;17473;52.286;20.930;2023-02-19T06:21:30;99629.13;;;4.63;77.60
30724;BME280;17473;52.286;20.930;2023-02-19T06:23:57;99635.38;;;4.66;77.34
30724;BME280;17473;52.286;20.930;2023-02-19T06:26:25;99633.31;;;4.59;77.61
30724;BME280;17473;52.286;20.930;2023-02-19T06:28:53;99627.13;;;4.57;77.63
30724;BME280;17473;52.286;20.930;2023-02-19T06:31:21;99639.31;;;4.57;77.73
30724;BME280;17473;52.286;20.930;2023-02-19T06:33:48;99636.63;;;4.75;77.33
30724;BME280;17473;52.286;20.930;2023-02-19T06:36:19;99641.44;;;4.85;76.76
30724;BME280;17473;52.286;20.930;2023-02-19T06:38:47;99638.84;;;4.85;76.79
30724;BME280;17473;52.286;20.930;2023-02-19T06:41:14;99635.88;;;4.77;77.07
30724;BME280;17473;52.286;20.930;2023-02-19T06:43:42;99637.09;;;4.85;76.96
30724;BME280;17473;52.286;20.930;2023-02-19T06:46:11;99630.00;;;4.83;77.09
30724;BME280;17473;52.286;20.930;2023-02-19T06:48:40;99622.72;;;4.95;76.57
30724;BME280;17473;52.286;20.930;2023-02-19T06:51:18;99632.28;;;4.95;76.46
30724;BME280;17473;52.286;20.930;2023-02-19T06:53:48;99630.22;;;5.07;75.95
30724;BME280;17473;52.286;20.930;2023-02-19T06:56:34;99638.13;;;5.09;75.81
30724;BME280;17473;52.286;20.930;2023-02-19T06:59:06;99644.13;;;5.06;76.04
30724;BME280;17473;52.286;20.930;2023-02-19T07:01:35;99644.31;;;5.11;75.73
30724;BME280;17473;52.286;20.930;2023-02-19T07:04:03;99638.88;;;5.06;75.86
30724;BME280;17473;52.286;20.930;2023-02-19T07:06:32;99643.97;;;5.03;75.82
30724;BME280;17473;52.286;20.930;2023-02-19T07:09:00;99646.59;;;5.03;75.97
30724;BME280;17473;52.286;20.930;2023-02-19T07:11:30;99642.34;;;5.05;75.62
30724;BME280;17473;52.286;20.930;2023-02-19T07:14:01;99652.75;;;5.04;75.79
30724;BME280;17473;52.286;20.930;2023-02-19T07:16:29;99648.78;;;5.13;75.39
30724;BME280;17473;52.286;20.930;2023-02-19T07:18:58;99653.59;;;5.24;74.77
30724;BME280;17473;52.286;20.930;2023-02-19T07:21:27;99660.41;;;5.40;74.46
30724;BME280;17473;52.286;20.930;2023-02-19T07:23:55;99662.75;;;5.33;74.58
30724;BME280;17473;52.286;20.930;2023-02-19T07:26:23;99653.34;;;5.17;75.07
30724;BME280;17473;52.286;20.930;2023-02-19T07:28:51;99662.22;;;5.21;75.08
30724;BME280;17473;52.286;20.930;2023-02-19T07:31:20;99657.47;;;5.12;75.28
30724;BME280;17473;52.286;20.930;2023-02-19T07:33:48;99663.09;;;5.22;75.03
30724;BME280;17473;52.286;20.930;2023-02-19T07:36:17;99665.63;;;5.19;75.00
30724;BME280;17473;52.286;20.930;2023-02-19T07:38:44;99662.38;;;5.24;74.86
30724;BME280;17473;52.286;20.930;2023-02-19T07:41:12;99666.13;;;5.31;74.76
30724;BME280;17473;52.286;20.930;2023-02-19T07:43:40;99665.66;;;5.40;74.22
30724;BME280;17473;52.286;20.930;2023-02-19T07:46:11;99666.66;;;5.43;74.19
30724;BME280;17473;52.286;20.930;2023-02-19T07:48:41;99667.06;;;5.53;73.84
30724;BME280;17473;52.286;20.930;2023-02-19T07:51:14;99658.81;;;5.64;73.37
30724;BME280;17473;52.286;20.930;2023-02-19T07:53:46;99665.63;;;5.80;72.97
30724;BME280;17473;52.286;20.930;2023-02-19T07:56:13;99665.63;;;5.80;72.78
30724;BME280;17473;52.286;20.930;2023-02-19T07:58:41;99672.16;;;5.92;72.23
30724;BME280;17473;52.286;20.930;2023-02-19T08:01:16;99670.09;;;6.04;71.84
30724;BME280;17473;52.286;20.930;2023-02-19T08:03:44;99664.06;;;6.07;71.54
30724;BME280;17473;52.286;20.930;2023-02-19T08:06:11;99675.34;;;6.04;71.62
30724;BME280;17473;52.286;20.930;2023-02-19T08:08:39;99669.06;;;6.01;71.63
30724;BME280;17473;52.286;20.930;2023-02-19T08:11:06;99677.25;;;6.08;71.64
30724;BME280;17473;52.286;20.930;2023-02-19T08:13:52;99674.75;;;6.11;71.25
30724;BME280;17473;52.286;20.930;2023-02-19T08:16:20;99677.38;;;6.11;71.31
30724;BME280;17473;52.286;20.930;2023-02-19T08:19:06;99680.94;;;6.14;71.05
30724;BME280;17473;52.286;20.930;2023-02-19T08:21:33;99685.91;;;6.29;71.04
30724;BME280;17473;52.286;20.930;2023-02-19T08:24:00;99696.19;;;6.22;70.62
30724;BME280;17473;52.286;20.930;2023-02-19T08:26:28;99693.03;;;6.10;70.82
30724;BME280;17473;52.286;20.930;2023-02-19T08:28:55;99698.28;;;6.10;71.37
30724;BME280;17473;52.286;20.930;2023-02-19T08:31:22;99697.75;;;6.19;70.87
30724;BME280;17473;52.286;20.930;2023-02-19T08:33:49;99695.50;;;6.28;70.97
30724;BME280;17473;52.286;20.930;2023-02-19T08:36:17;99697.75;;;6.19;70.77
30724;BME280;17473;52.286;20.930;2023-02-19T08:38:44;99711.19;;;6.26;70.89
30724;BME280;17473;52.286;20.930;2023-02-19T08:41:13;99702.53;;;6.29;70.29
30724;BME280;17473;52.286;20.930;2023-02-19T08:43:41;99702.91;;;6.38;69.65
30724;BME280;17473;52.286;20.930;2023-02-19T08:46:11;99693.91;;;6.10;70.07
30724;BME280;17473;52.286;20.930;2023-02-19T08:48:39;99698.94;;;6.04;70.79
30724;BME280;17473;52.286;20.930;2023-02-19T08:51:09;99699.53;;;5.99;70.74
30724;BME280;17473;52.286;20.930;2023-02-19T08:53:39;99708.00;;;6.13;70.55
30724;BME280;17473;52.286;20.930;2023-02-19T08:56:12;99705.56;;;6.17;70.23
30724;BME280;17473;52.286;20.930;2023-02-19T08:58:39;99698.91;;;6.25;69.98
30724;BME280;17473;52.286;20.930;2023-02-19T09:01:12;99703.91;;;6.19;70.07
30724;BME280;17473;52.286;20.930;2023-02-19T09:03:41;99695.13;;;6.19;70.06
30724;BME280;17473;52.286;20.930;2023-02-19T09:06:14;99694.97;;;6.37;69.35
30724;BME280;17473;52.286;20.930;2023-02-19T09:08:42;99696.34;;;6.27;69.67
30724;BME280;17473;52.286;20.930;2023-02-19T09:11:10;99701.28;;;6.42;69.11
30724;BME280;17473;52.286;20.930;2023-02-19T09:13:37;99708.66;;;6.51;69.00
30724;BME280;17473;52.286;20.930;2023-02-19T09:16:05;99704.59;;;6.59;68.46
30724;BME280;17473;52.286;20.930;2023-02-19T09:18:33;99705.56;;;6.61;68.41
30724;BME280;17473;52.286;20.930;2023-02-19T09:21:02;99700.97;;;6.55;68.56
30724;BME280;17473;52.286;20.930;2023-02-19T09:23:35;99708.44;;;6.69;67.98
30724;BME280;17473;52.286;20.930;2023-02-19T09:26:04;99710.56;;;6.78;67.97
30724;BME280;17473;52.286;20.930;2023-02-19T09:28:33;99714.00;;;6.77;67.64
30724;BME280;17473;52.286;20.930;2023-02-19T09:31:10;99704.28;;;6.74;67.27
30724;BME280;17473;52.286;20.930;2023-02-19T09:33:45;99713.00;;;6.73;67.37
30724;BME280;17473;52.286;20.930;2023-02-19T09:36:14;99718.91;;;6.90;66.90
30724;BME280;17473;52.286;20.930;2023-02-19T09:38:42;99705.97;;;6.95;66.64
30724;BME280;17473;52.286;20.930;2023-02-19T09:41:27;99708.97;;;6.83;66.68
30724;BME280;17473;52.286;20.930;2023-02-19T09:43:59;99710.56;;;6.78;66.99
30724;BME280;17473;52.286;20.930;2023-02-19T09:46:44;99713.97;;;6.75;66.47
30724;BME280;17473;52.286;20.930;2023-02-19T09:49:27;99714.31;;;7.09;65.39
30724;BME280;17473;52.286;20.930;2023-02-19T09:52:13;99710.75;;;7.31;64.52
30724;BME280;17473;52.286;20.930;2023-02-19T09:54:45;99720.16;;;7.48;63.73
30724;BME280;17473;52.286;20.930;2023-02-19T09:57:18;99716.59;;;8.25;61.96
30724;BME280;17473;52.286;20.930;2023-02-19T10:00:05;99716.25;;;8.69;60.27
30724;BME280;17473;52.286;20.930;2023-02-19T10:02:36;99709.28;;;9.00;59.36
30724;BME280;17473;52.286;20.930;2023-02-19T10:05:14;99718.09;;;9.65;57.58
30724;BME280;17473;52.286;20.930;2023-02-19T10:07:48;99703.78;;;9.89;56.32
30724;BME280;17473;52.286;20.930;2023-02-19T10:10:31;99702.72;;;9.82;56.96
30724;BME280;17473;52.286;20.930;2023-02-19T10:13:28;99702.22;;;9.97;56.74
30724;BME280;17473;52.286;20.930;2023-02-19T10:16:00;99705.16;;;10.08;55.72
30724;BME280;17473;52.286;20.930;2023-02-19T10:18:38;99713.38;;;9.86;55.80
30724;BME280;17473;52.286;20.930;2023-02-19T10:21:10;99707.88;;;9.44;56.19
30724;BME280;17473;52.286;20.930;2023-02-19T10:23:39;99716.25;;;9.29;56.66
30724;BME280;17473;52.286;20.930;2023-02-19T10:26:07;99719.56;;;9.21;56.37
30724;BME280;17473;52.286;20.930;2023-02-19T10:28:35;99717.97;;;9.28;55.92
30724;BME280;17473;52.286;20.930;2023-02-19T10:31:17;99717.34;;;9.37;55.75
30724;BME280;17473;52.286;20.930;2023-02-19T10:33:54;99727.91;;;9.38;55.17
30724;BME280;17473;52.286;20.930;2023-02-19T10:36:36;99722.03;;;9.47;55.19
30724;BME280;17473;52.286;20.930;2023-02-19T10:39:36;99725.16;;;9.34;55.42
30724;BME280;17473;52.286;20.930;2023-02-19T10:42:04;99731.13;;;9.59;54.70
30724;BME280;17473;52.286;20.930;2023-02-19T10:44:41;99736.88;;;9.44;54.33
30724;BME280;17473;52.286;20.930;2023-02-19T10:47:22;99734.66;;;9.27;54.54
30724;BME280;17473;52.286;20.930;2023-02-19T10:49:51;99750.84;;;9.41;54.25
30724;BME280;17473;52.286;20.930;2023-02-19T10:52:31;99743.94;;;9.78;53.01
30724;BME280;17473;52.286;20.930;2023-02-19T10:57:50;99731.06;;;9.57;52.83
30724;BME280;17473;52.286;20.930;2023-02-19T11:00:29;99740.50;;;9.49;52.66
30724;BME280;17473;52.286;20.930;2023-02-19T11:03:20;99734.94;;;9.38;52.73
30724;BME280;17473;52.286;20.930;2023-02-19T11:06:03;99744.28;;;9.27;53.55
30724;BME280;17473;52.286;20.930;2023-02-19T11:08:57;99750.06;;;9.45;53.03
30724;BME280;17473;52.286;20.930;2023-02-19T11:11:36;99736.03;;;9.45;52.98
30724;BME280;17473;52.286;20.930;2023-02-19T11:14:19;99750.28;;;9.53;53.05
30724;BME280;17473;52.286;20.930;2023-02-19T11:16:56;99749.94;;;9.40;52.72
30724;BME280;17473;52.286;20.930;2023-02-19T11:19:38;99756.47;;;9.55;52.74
30724;BME280;17473;52.286;20.930;2023-02-19T11:22:36;99757.91;;;9.74;52.06
30724;BME280;17473;52.286;20.930;2023-02-19T11:30:45;99742.97;;;9.43;51.64
30724;BME280;17473;52.286;20.930;2023-02-19T11:35:44;99739.81;;;9.56;51.38
30724;BME280;17473;52.286;20.930;2023-02-19T11:38:15;99754.84;;;9.59;51.52
30724;BME280;17473;52.286;20.930;2023-02-19T11:41:07;99750.03;;;9.76;51.06
30724;BME280;17473;52.286;20.930;2023-02-19T11:49:56;99749.09;;;10.42;49.99
30724;BME280;17473;52.286;20.930;2023-02-19T11:52:45;99755.09;;;10.37;49.72
30724;BME280;17473;52.286;20.930;2023-02-19T11:55:48;99754.81;;;10.61;49.57
30724;BME280;17473;52.286;20.930;2023-02-19T11:59:06;99758.44;;;10.64;49.51
30724;BME280;17473;52.286;20.930;2023-02-19T12:10:27;99765.81;;;11.19;48.13
30724;BME280;17473;52.286;20.930;2023-02-19T12:17:10;99752.38;;;10.69;48.30
30724;BME280;17473;52.286;20.930;2023-02-19T12:19:47;99769.38;;;10.43;49.25
30724;BME280;17473;52.286;20.930;2023-02-19T12:34:02;99803.59;;;9.75;49.13
30724;BME280;17473;52.286;20.930;2023-02-19T12:36:58;99811.81;;;9.55;49.56
30724;BME280;17473;52.286;20.930;2023-02-19T12:45:55;99811.47;;;9.41;50.64
30724;BME280;17473;52.286;20.930;2023-02-19T12:48:48;99804.00;;;9.57;50.17
30724;BME280;17473;52.286;20.930;2023-02-19T12:56:43;99804.47;;;9.43;50.40
30724;BME280;17473;52.286;20.930;2023-02-19T13:00:00;99805.94;;;9.64;50.03
30724;BME280;17473;52.286;20.930;2023-02-19T13:02:43;99819.41;;;9.75;49.63
30724;BME280;17473;52.286;20.930;2023-02-19T13:11:22;99808.00;;;9.44;49.30
30724;BME280;17473;52.286;20.930;2023-02-19T13:14:32;99812.59;;;9.51;48.97
30724;BME280;17473;52.286;20.930;2023-02-19T13:16:59;99820.59;;;9.84;48.52
30724;BME280;17473;52.286;20.930;2023-02-19T13:19:29;99807.59;;;9.60;48.82
30724;BME280;17473;52.286;20.930;2023-02-19T13:22:26;99824.19;;;9.88;48.54
30724;BME280;17473;52.286;20.930;2023-02-19T13:25:16;99824.88;;;9.81;48.70
30724;BME280;17473;52.286;20.930;2023-02-19T13:30:47;99827.16;;;10.00;48.18
30724;BME280;17473;52.286;20.930;2023-02-19T13:33:42;99828.22;;;10.07;47.60
30724;BME280;17473;52.286;20.930;2023-02-19T13:36:32;99831.91;;;10.14;47.30
30724;BME280;17473;52.286;20.930;2023-02-19T13:39:04;99833.75;;;10.16;47.38
30724;BME280;17473;52.286;20.930;2023-02-19T13:41:53;99842.06;;;9.98;47.42
30724;BME280;17473;52.286;20.930;2023-02-19T13:44:26;99843.38;;;9.82;47.46
30724;BME280;17473;52.286;20.930;2023-02-19T13:46:54;99850.25;;;9.77;47.36
30724;BME280;17473;52.286;20.930;2023-02-19T13:52:18;99857.66;;;9.91;46.93
30724;BME280;17473;52.286;20.930;2023-02-19T13:54:49;99861.06;;;9.86;47.23
30724;BME280;17473;52.286;20.930;2023-02-19T13:57:35;99859.09;;;9.79;47.21
30724;BME280;17473;52.286;20.930;2023-02-19T14:00:50;99853.88;;;9.50;47.15
30724;BME280;17473;52.286;20.930;2023-02-19T14:06:08;99860.38;;;9.33;47.82
30724;BME280;17473;52.286;20.930;2023-02-19T14:08:55;99863.50;;;9.19;48.33
30724;BME280;17473;52.286;20.930;2023-02-19T14:14:46;99879.28;;;9.19;47.51
30724;BME280;17473;52.286;20.930;2023-02-19T14:25:42;99898.75;;;8.70;47.05
30724;BME280;17473;52.286;20.930;2023-02-19T14:28:32;99895.91;;;8.64;47.42
30724;BME280;17473;52.286;20.930;2023-02-19T14:31:18;99888.47;;;8.50;47.45
30724;BME280;17473;52.286;20.930;2023-02-19T14:33:52;99884.91;;;8.50;47.50
30724;BME280;17473;52.286;20.930;2023-02-19T14:39:16;99902.31;;;8.46;47.36
30724;BME280;17473;52.286;20.930;2023-02-19T14:41:50;99906.47;;;8.39;47.63
30724;BME280;17473;52.286;20.930;2023-02-19T14:44:26;99903.16;;;8.45;46.90
30724;BME280;17473;52.286;20.930;2023-02-19T14:47:06;99912.19;;;8.27;47.55
30724;BME280;17473;52.286;20.930;2023-02-19T14:49:44;99919.25;;;8.28;47.34
30724;BME280;17473;52.286;20.930;2023-02-19T14:52:23;99906.91;;;8.27;47.57
30724;BME280;17473;52.286;20.930;2023-02-19T14:55:05;99911.03;;;8.19;47.51
30724;BME280;17473;52.286;20.930;2023-02-19T14:57:45;99922.78;;;8.05;48.17
30724;BME280;17473;52.286;20.930;2023-02-19T15:00:29;99928.72;;;7.99;48.47
30724;BME280;17473;52.286;20.930;2023-02-19T15:02:57;99929.59;;;7.99;48.98
30724;BME280;17473;52.286;20.930;2023-02-19T15:05:32;99928.75;;;8.01;49.19
30724;BME280;17473;52.286;20.930;2023-02-19T15:08:13;99932.00;;;7.93;48.87
30724;BME280;17473;52.286;20.930;2023-02-19T15:10:44;99937.88;;;7.86;49.39
30724;BME280;17473;52.286;20.930;2023-02-19T15:13:24;99940.94;;;7.98;48.42
30724;BME280;17473;52.286;20.930;2023-02-19T15:15:52;99944.97;;;7.89;48.73
30724;BME280;17473;52.286;20.930;2023-02-19T15:18:24;99959.69;;;7.83;48.95
30724;BME280;17473;52.286;20.930;2023-02-19T15:21:01;99967.31;;;7.77;49.01
30724;BME280;17473;52.286;20.930;2023-02-19T15:23:30;99966.50;;;7.78;49.04
30724;BME280;17473;52.286;20.930;2023-02-19T15:25:59;99961.78;;;7.70;49.32
30724;BME280;17473;52.286;20.930;2023-02-19T15:33:27;99955.91;;;7.54;50.49
30724;BME280;17473;52.286;20.930;2023-02-19T15:35:59;99968.59;;;7.64;50.15
30724;BME280;17473;52.286;20.930;2023-02-19T15:38:28;99971.81;;;7.57;50.24